sensor_id;sensor_type;location;lat;lon;timestamp;temperature;humidity
38380;DHT22;38377;47.418;18.882;2022-08-19T00:01:27;24.50;90.70
38380;DHT22;38377;47.418;18.882;2022-08-19T00:03:58;24.50;90.60
38380;DHT22;38377;47.418;18.882;2022-08-19T00:06:24;24.50;90.90
38380;DHT22;38377;47.418;18.882;2022-08-19T00:08:50;24.40;91.10
38380;DHT22;38377;47.418;18.882;2022-08-19T00:11:17;24.30;90.90
38380;DHT22;38377;47.418;18.882;2022-08-19T00:13:43;24.30;90.80
38380;DHT22;38377;47.418;18.882;2022-08-19T00:16:08;24.40;91.00
38380;DHT22;38377;47.418;18.882;2022-08-19T00:18:35;24.40;91.30
38380;DHT22;38377;47.418;18.882;2022-08-19T00:21:01;24.40;91.00
38380;DHT22;38377;47.418;18.882;2022-08-19T00:23:27;24.40;91.20
38380;DHT22;38377;47.418;18.882;2022-08-19T00:25:53;24.30;91.70
38380;DHT22;38377;47.418;18.882;2022-08-19T00:28:19;24.20;91.70
38380;DHT22;38377;47.418;18.882;2022-08-19T00:30:46;24.20;91.60
38380;DHT22;38377;47.418;18.882;2022-08-19T00:33:11;24.20;91.80
38380;DHT22;38377;47.418;18.882;2022-08-19T00:35:39;24.30;91.40
38380;DHT22;38377;47.418;18.882;2022-08-19T00:38:05;24.40;91.40
38380;DHT22;38377;47.418;18.882;2022-08-19T00:40:32;24.40;91.70
38380;DHT22;38377;47.418;18.882;2022-08-19T00:42:58;24.30;91.50
38380;DHT22;38377;47.418;18.882;2022-08-19T00:45:27;24.30;91.80
38380;DHT22;38377;47.418;18.882;2022-08-19T00:47:53;24.30;91.70
38380;DHT22;38377;47.418;18.882;2022-08-19T00:50:20;24.40;91.40
38380;DHT22;38377;47.418;18.882;2022-08-19T00:52:48;24.40;91.40
38380;DHT22;38377;47.418;18.882;2022-08-19T00:55:18;24.50;91.10
38380;DHT22;38377;47.418;18.882;2022-08-19T00:57:49;24.60;91.60
38380;DHT22;38377;47.418;18.882;2022-08-19T01:00:18;24.60;91.00
38380;DHT22;38377;47.418;18.882;2022-08-19T01:02:45;24.70;90.80
38380;DHT22;38377;47.418;18.882;2022-08-19T01:05:16;24.70;90.80
38380;DHT22;38377;47.418;18.882;2022-08-19T01:07:44;24.90;90.50
38380;DHT22;38377;47.418;18.882;2022-08-19T01:10:15;24.90;90.50
38380;DHT22;38377;47.418;18.882;2022-08-19T01:12:45;25.00;90.30
38380;DHT22;38377;47.418;18.882;2022-08-19T01:15:14;24.90;90.50
38380;DHT22;38377;47.418;18.882;2022-08-19T01:17:41;24.90;90.60
38380;DHT22;38377;47.418;18.882;2022-08-19T01:20:14;24.80;90.50
38380;DHT22;38377;47.418;18.882;2022-08-19T01:22:45;24.90;90.30
38380;DHT22;38377;47.418;18.882;2022-08-19T01:25:16;24.80;90.90
38380;DHT22;38377;47.418;18.882;2022-08-19T01:27:45;24.70;90.70
38380;DHT22;38377;47.418;18.882;2022-08-19T01:30:15;24.90;90.40
38380;DHT22;38377;47.418;18.882;2022-08-19T01:32:41;25.00;90.00
38380;DHT22;38377;47.418;18.882;2022-08-19T01:35:11;25.10;90.20
38380;DHT22;38377;47.418;18.882;2022-08-19T01:37:59;25.10;89.90
38380;DHT22;38377;47.418;18.882;2022-08-19T01:40:30;25.00;90.00
38380;DHT22;38377;47.418;18.882;2022-08-19T01:42:57;24.90;90.20
38380;DHT22;38377;47.418;18.882;2022-08-19T01:45:26;24.90;90.20
38380;DHT22;38377;47.418;18.882;2022-08-19T01:47:53;24.90;90.00
38380;DHT22;38377;47.418;18.882;2022-08-19T01:50:19;24.90;90.00
38380;DHT22;38377;47.418;18.882;2022-08-19T01:52:45;24.90;90.30
38380;DHT22;38377;47.418;18.882;2022-08-19T01:55:14;24.90;90.30
38380;DHT22;38377;47.418;18.882;2022-08-19T01:57:43;24.90;90.10
38380;DHT22;38377;47.418;18.882;2022-08-19T02:00:13;25.00;90.30
38380;DHT22;38377;47.418;18.882;2022-08-19T02:02:41;24.90;89.80
38380;DHT22;38377;47.418;18.882;2022-08-19T02:05:07;25.00;89.90
38380;DHT22;38377;47.418;18.882;2022-08-19T02:07:34;24.90;90.50
38380;DHT22;38377;47.418;18.882;2022-08-19T02:10:06;24.90;90.00
38380;DHT22;38377;47.418;18.882;2022-08-19T02:12:32;24.90;90.40
38380;DHT22;38377;47.418;18.882;2022-08-19T02:14:58;25.00;89.90
38380;DHT22;38377;47.418;18.882;2022-08-19T02:17:24;25.00;89.50
38380;DHT22;38377;47.418;18.882;2022-08-19T02:19:50;25.00;90.00
38380;DHT22;38377;47.418;18.882;2022-08-19T02:22:15;24.90;90.40
38380;DHT22;38377;47.418;18.882;2022-08-19T02:24:41;24.90;90.20
38380;DHT22;38377;47.418;18.882;2022-08-19T02:27:07;24.90;90.20
38380;DHT22;38377;47.418;18.882;2022-08-19T02:29:33;24.80;90.50
38380;DHT22;38377;47.418;18.882;2022-08-19T02:31:59;24.70;90.30
38380;DHT22;38377;47.418;18.882;2022-08-19T02:34:24;24.70;90.40
38380;DHT22;38377;47.418;18.882;2022-08-19T02:36:51;24.70;90.50
38380;DHT22;38377;47.418;18.882;2022-08-19T02:39:18;24.60;90.80
38380;DHT22;38377;47.418;18.882;2022-08-19T02:41:43;24.50;91.30
38380;DHT22;38377;47.418;18.882;2022-08-19T02:44:09;24.50;90.70
38380;DHT22;38377;47.418;18.882;2022-08-19T02:46:35;24.50;90.40
38380;DHT22;38377;47.418;18.882;2022-08-19T02:49:03;24.60;90.70
38380;DHT22;38377;47.418;18.882;2022-08-19T02:51:36;24.60;90.60
38380;DHT22;38377;47.418;18.882;2022-08-19T02:54:03;24.60;90.60
38380;DHT22;38377;47.418;18.882;2022-08-19T02:56:29;24.50;90.70
38380;DHT22;38377;47.418;18.882;2022-08-19T02:58:57;24.50;90.50
38380;DHT22;38377;47.418;18.882;2022-08-19T03:01:29;24.60;90.60
38380;DHT22;38377;47.418;18.882;2022-08-19T03:03:56;24.60;90.60
38380;DHT22;38377;47.418;18.882;2022-08-19T03:06:23;24.60;90.70
38380;DHT22;38377;47.418;18.882;2022-08-19T03:08:50;24.50;90.90
38380;DHT22;38377;47.418;18.882;2022-08-19T03:11:25;24.40;91.00
38380;DHT22;38377;47.418;18.882;2022-08-19T03:13:51;24.30;91.00
38380;DHT22;38377;47.418;18.882;2022-08-19T03:16:18;24.30;91.60
38380;DHT22;38377;47.418;18.882;2022-08-19T03:18:44;24.20;91.50
38380;DHT22;38377;47.418;18.882;2022-08-19T03:21:18;24.10;91.60
38380;DHT22;38377;47.418;18.882;2022-08-19T03:23:45;24.10;91.80
38380;DHT22;38377;47.418;18.882;2022-08-19T03:26:11;24.00;92.30
38380;DHT22;38377;47.418;18.882;2022-08-19T03:28:37;23.90;91.90
38380;DHT22;38377;47.418;18.882;2022-08-19T03:31:07;23.90;92.40
38380;DHT22;38377;47.418;18.882;2022-08-19T03:33:35;23.90;92.30
38380;DHT22;38377;47.418;18.882;2022-08-19T03:36:18;23.80;92.30
38380;DHT22;38377;47.418;18.882;2022-08-19T03:38:48;23.80;92.60
38380;DHT22;38377;47.418;18.882;2022-08-19T03:41:18;23.70;92.80
38380;DHT22;38377;47.418;18.882;2022-08-19T03:43:45;23.70;92.70
38380;DHT22;38377;47.418;18.882;2022-08-19T03:46:17;23.80;93.20
38380;DHT22;38377;47.418;18.882;2022-08-19T03:48:46;23.70;92.70
38380;DHT22;38377;47.418;18.882;2022-08-19T03:51:21;23.70;92.90
38380;DHT22;38377;47.418;18.882;2022-08-19T03:53:47;23.70;93.00
38380;DHT22;38377;47.418;18.882;2022-08-19T03:56:12;23.70;93.00
38380;DHT22;38377;47.418;18.882;2022-08-19T03:58:39;23.70;93.10
38380;DHT22;38377;47.418;18.882;2022-08-19T04:01:10;23.80;93.20
38380;DHT22;38377;47.418;18.882;2022-08-19T04:03:37;23.70;93.70
38380;DHT22;38377;47.418;18.882;2022-08-19T04:06:30;23.70;93.50
38380;DHT22;38377;47.418;18.882;2022-08-19T04:08:57;23.70;93.40
38380;DHT22;38377;47.418;18.882;2022-08-19T04:11:27;23.70;94.10
38380;DHT22;38377;47.418;18.882;2022-08-19T04:13:54;23.70;94.20
38380;DHT22;38377;47.418;18.882;2022-08-19T04:16:21;23.70;94.40
38380;DHT22;38377;47.418;18.882;2022-08-19T04:18:48;23.70;94.40
38380;DHT22;38377;47.418;18.882;2022-08-19T04:21:20;23.60;95.80
38380;DHT22;38377;47.418;18.882;2022-08-19T04:23:46;23.60;94.60
38380;DHT22;38377;47.418;18.882;2022-08-19T04:26:17;23.70;94.30
38380;DHT22;38377;47.418;18.882;2022-08-19T04:28:44;23.80;94.10
38380;DHT22;38377;47.418;18.882;2022-08-19T04:31:18;23.90;93.70
38380;DHT22;38377;47.418;18.882;2022-08-19T04:33:44;24.00;94.00
38380;DHT22;38377;47.418;18.882;2022-08-19T04:36:19;24.10;94.30
38380;DHT22;38377;47.418;18.882;2022-08-19T04:38:49;24.10;93.40
38380;DHT22;38377;47.418;18.882;2022-08-19T04:41:16;24.10;93.50
38380;DHT22;38377;47.418;18.882;2022-08-19T04:44:00;24.20;93.20
38380;DHT22;38377;47.418;18.882;2022-08-19T04:46:27;24.30;93.30
38380;DHT22;38377;47.418;18.882;2022-08-19T04:48:56;24.40;93.40
38380;DHT22;38377;47.418;18.882;2022-08-19T04:51:22;24.40;93.00
38380;DHT22;38377;47.418;18.882;2022-08-19T04:53:48;24.50;93.10
38380;DHT22;38377;47.418;18.882;2022-08-19T04:56:15;24.50;92.90
38380;DHT22;38377;47.418;18.882;2022-08-19T04:58:43;24.60;92.70
38380;DHT22;38377;47.418;18.882;2022-08-19T05:01:28;24.60;92.80
38380;DHT22;38377;47.418;18.882;2022-08-19T05:03:55;24.70;92.60
38380;DHT22;38377;47.418;18.882;2022-08-19T05:06:22;24.70;92.60
38380;DHT22;38377;47.418;18.882;2022-08-19T05:08:49;24.80;92.50
38380;DHT22;38377;47.418;18.882;2022-08-19T05:11:22;24.90;92.80
38380;DHT22;38377;47.418;18.882;2022-08-19T05:13:49;25.00;92.30
38380;DHT22;38377;47.418;18.882;2022-08-19T05:16:17;25.00;92.50
38380;DHT22;38377;47.418;18.882;2022-08-19T05:18:43;25.10;92.40
38380;DHT22;38377;47.418;18.882;2022-08-19T05:21:28;25.20;92.30
38380;DHT22;38377;47.418;18.882;2022-08-19T05:24:13;25.30;91.80
38380;DHT22;38377;47.418;18.882;2022-08-19T05:26:41;25.30;92.00
38380;DHT22;38377;47.418;18.882;2022-08-19T05:29:08;25.50;91.80
38380;DHT22;38377;47.418;18.882;2022-08-19T05:31:34;25.50;91.30
38380;DHT22;38377;47.418;18.882;2022-08-19T05:34:01;25.50;91.50
38380;DHT22;38377;47.418;18.882;2022-08-19T05:36:28;25.60;91.50
38380;DHT22;38377;47.418;18.882;2022-08-19T05:38:54;25.60;91.50
38380;DHT22;38377;47.418;18.882;2022-08-19T05:41:21;25.70;91.10
38380;DHT22;38377;47.418;18.882;2022-08-19T05:43:48;25.80;92.00
38380;DHT22;38377;47.418;18.882;2022-08-19T05:46:19;25.90;92.20
38380;DHT22;38377;47.418;18.882;2022-08-19T05:48:46;25.90;91.00
38380;DHT22;38377;47.418;18.882;2022-08-19T05:51:12;26.00;91.30
38380;DHT22;38377;47.418;18.882;2022-08-19T05:53:38;26.00;90.60
38380;DHT22;38377;47.418;18.882;2022-08-19T05:56:09;26.10;91.10
38380;DHT22;38377;47.418;18.882;2022-08-19T05:58:36;26.20;90.60
38380;DHT22;38377;47.418;18.882;2022-08-19T06:01:09;26.30;90.20
38380;DHT22;38377;47.418;18.882;2022-08-19T06:03:36;26.40;90.40
38380;DHT22;38377;47.418;18.882;2022-08-19T06:06:03;26.50;90.80
38380;DHT22;38377;47.418;18.882;2022-08-19T06:08:29;26.60;88.90
38380;DHT22;38377;47.418;18.882;2022-08-19T06:10:55;26.70;89.00
38380;DHT22;38377;47.418;18.882;2022-08-19T06:13:22;26.80;89.30
38380;DHT22;38377;47.418;18.882;2022-08-19T06:15:48;26.90;88.40
38380;DHT22;38377;47.418;18.882;2022-08-19T06:18:15;26.90;87.70
38380;DHT22;38377;47.418;18.882;2022-08-19T06:20:41;27.10;88.80
38380;DHT22;38377;47.418;18.882;2022-08-19T06:23:08;27.20;88.10
38380;DHT22;38377;47.418;18.882;2022-08-19T06:25:35;27.20;87.80
38380;DHT22;38377;47.418;18.882;2022-08-19T06:28:01;27.30;86.60
38380;DHT22;38377;47.418;18.882;2022-08-19T06:30:27;27.40;86.10
38380;DHT22;38377;47.418;18.882;2022-08-19T06:32:52;27.50;85.80
38380;DHT22;38377;47.418;18.882;2022-08-19T06:35:18;27.60;85.80
38380;DHT22;38377;47.418;18.882;2022-08-19T06:37:44;27.70;84.20
38380;DHT22;38377;47.418;18.882;2022-08-19T06:40:10;27.80;85.60
38380;DHT22;38377;47.418;18.882;2022-08-19T06:42:38;27.90;84.80
38380;DHT22;38377;47.418;18.882;2022-08-19T06:45:04;28.10;84.20
38380;DHT22;38377;47.418;18.882;2022-08-19T06:47:31;28.10;83.60
38380;DHT22;38377;47.418;18.882;2022-08-19T06:49:59;28.00;83.10
38380;DHT22;38377;47.418;18.882;2022-08-19T06:52:33;28.10;83.80
38380;DHT22;38377;47.418;18.882;2022-08-19T06:55:00;28.10;83.50
38380;DHT22;38377;47.418;18.882;2022-08-19T06:57:26;28.10;82.40
38380;DHT22;38377;47.418;18.882;2022-08-19T06:59:52;28.30;82.90
38380;DHT22;38377;47.418;18.882;2022-08-19T07:02:19;28.40;82.80
38380;DHT22;38377;47.418;18.882;2022-08-19T07:04:46;28.40;82.10
38380;DHT22;38377;47.418;18.882;2022-08-19T07:07:14;28.50;82.60
38380;DHT22;38377;47.418;18.882;2022-08-19T07:09:42;28.70;81.60
38380;DHT22;38377;47.418;18.882;2022-08-19T07:12:12;28.90;80.70
38380;DHT22;38377;47.418;18.882;2022-08-19T07:14:41;28.90;80.80
38380;DHT22;38377;47.418;18.882;2022-08-19T07:17:11;29.00;80.40
38380;DHT22;38377;47.418;18.882;2022-08-19T07:19:37;29.30;80.60
38380;DHT22;38377;47.418;18.882;2022-08-19T07:22:05;29.50;80.20
38380;DHT22;38377;47.418;18.882;2022-08-19T07:24:33;29.70;79.20
38380;DHT22;38377;47.418;18.882;2022-08-19T07:27:00;29.80;77.00
38380;DHT22;38377;47.418;18.882;2022-08-19T07:29:29;29.50;77.50
38380;DHT22;38377;47.418;18.882;2022-08-19T07:31:56;29.80;77.80
38380;DHT22;38377;47.418;18.882;2022-08-19T07:34:25;30.00;77.10
38380;DHT22;38377;47.418;18.882;2022-08-19T07:36:51;30.10;76.60
38380;DHT22;38377;47.418;18.882;2022-08-19T07:39:24;30.40;75.90
38380;DHT22;38377;47.418;18.882;2022-08-19T07:41:50;30.40;75.30
38380;DHT22;38377;47.418;18.882;2022-08-19T07:44:17;30.80;75.50
38380;DHT22;38377;47.418;18.882;2022-08-19T07:46:47;30.90;75.30
38380;DHT22;38377;47.418;18.882;2022-08-19T07:49:14;31.00;73.70
38380;DHT22;38377;47.418;18.882;2022-08-19T07:51:47;31.00;72.60
38380;DHT22;38377;47.418;18.882;2022-08-19T07:54:13;30.90;71.90
38380;DHT22;38377;47.418;18.882;2022-08-19T07:56:39;30.70;71.90
38380;DHT22;38377;47.418;18.882;2022-08-19T07:59:05;30.80;72.10
38380;DHT22;38377;47.418;18.882;2022-08-19T08:01:31;30.90;72.10
38380;DHT22;38377;47.418;18.882;2022-08-19T08:03:57;30.80;71.40
38380;DHT22;38377;47.418;18.882;2022-08-19T08:06:41;31.00;70.40
38380;DHT22;38377;47.418;18.882;2022-08-19T08:09:35;31.20;71.10
38380;DHT22;38377;47.418;18.882;2022-08-19T08:12:09;31.30;69.80
38380;DHT22;38377;47.418;18.882;2022-08-19T08:14:53;31.30;69.20
38380;DHT22;38377;47.418;18.882;2022-08-19T08:17:23;31.30;69.30
38380;DHT22;38377;47.418;18.882;2022-08-19T08:19:49;31.50;69.20
38380;DHT22;38377;47.418;18.882;2022-08-19T08:22:18;31.20;69.10
38380;DHT22;38377;47.418;18.882;2022-08-19T08:25:08;31.60;68.30
38380;DHT22;38377;47.418;18.882;2022-08-19T08:27:39;31.90;67.70
38380;DHT22;38377;47.418;18.882;2022-08-19T08:30:11;31.90;67.80
38380;DHT22;38377;47.418;18.882;2022-08-19T08:32:38;32.20;66.90
38380;DHT22;38377;47.418;18.882;2022-08-19T08:35:10;32.20;66.90
38380;DHT22;38377;47.418;18.882;2022-08-19T08:37:36;32.10;66.50
38380;DHT22;38377;47.418;18.882;2022-08-19T08:43:07;32.20;66.70
38380;DHT22;38377;47.418;18.882;2022-08-19T08:45:41;32.30;65.80
38380;DHT22;38377;47.418;18.882;2022-08-19T08:48:20;32.30;66.20
38380;DHT22;38377;47.418;18.882;2022-08-19T08:50:47;32.60;66.60
38380;DHT22;38377;47.418;18.882;2022-08-19T08:53:17;32.70;64.90
38380;DHT22;38377;47.418;18.882;2022-08-19T08:55:44;32.40;63.60
38380;DHT22;38377;47.418;18.882;2022-08-19T08:58:20;32.60;65.00
38380;DHT22;38377;47.418;18.882;2022-08-19T09:00:49;32.80;64.50
38380;DHT22;38377;47.418;18.882;2022-08-19T09:03:20;32.80;64.50
38380;DHT22;38377;47.418;18.882;2022-08-19T09:06:29;33.10;63.70
38380;DHT22;38377;47.418;18.882;2022-08-19T09:16:42;33.20;61.50
38380;DHT22;38377;47.418;18.882;2022-08-19T09:19:08;33.30;61.90
38380;DHT22;38377;47.418;18.882;2022-08-19T09:21:34;33.50;61.90
38380;DHT22;38377;47.418;18.882;2022-08-19T09:24:01;33.70;60.80
38380;DHT22;38377;47.418;18.882;2022-08-19T09:26:27;33.40;62.40
38380;DHT22;38377;47.418;18.882;2022-08-19T09:28:53;33.70;61.30
38380;DHT22;38377;47.418;18.882;2022-08-19T09:31:22;33.30;60.70
38380;DHT22;38377;47.418;18.882;2022-08-19T09:33:48;33.00;60.70
38380;DHT22;38377;47.418;18.882;2022-08-19T09:36:16;33.00;61.50
38380;DHT22;38377;47.418;18.882;2022-08-19T09:38:42;33.00;61.60
38380;DHT22;38377;47.418;18.882;2022-08-19T09:41:13;33.30;61.70
38380;DHT22;38377;47.418;18.882;2022-08-19T09:43:41;33.60;60.50
38380;DHT22;38377;47.418;18.882;2022-08-19T09:46:08;33.40;61.00
38380;DHT22;38377;47.418;18.882;2022-08-19T09:48:35;33.60;61.40
38380;DHT22;38377;47.418;18.882;2022-08-19T09:51:12;33.40;61.30
38380;DHT22;38377;47.418;18.882;2022-08-19T09:53:44;33.60;59.70
38380;DHT22;38377;47.418;18.882;2022-08-19T09:56:11;34.00;60.10
38380;DHT22;38377;47.418;18.882;2022-08-19T09:58:37;33.60;60.30
38380;DHT22;38377;47.418;18.882;2022-08-19T10:01:04;33.70;60.30
38380;DHT22;38377;47.418;18.882;2022-08-19T10:03:32;34.10;60.80
38380;DHT22;38377;47.418;18.882;2022-08-19T10:06:03;34.10;60.20
38380;DHT22;38377;47.418;18.882;2022-08-19T10:08:33;34.20;60.10
38380;DHT22;38377;47.418;18.882;2022-08-19T10:11:00;34.30;60.70
38380;DHT22;38377;47.418;18.882;2022-08-19T10:13:29;34.60;60.20
38380;DHT22;38377;47.418;18.882;2022-08-19T10:16:02;34.50;59.20
38380;DHT22;38377;47.418;18.882;2022-08-19T10:18:28;34.30;59.30
38380;DHT22;38377;47.418;18.882;2022-08-19T10:21:06;34.40;59.30
38380;DHT22;38377;47.418;18.882;2022-08-19T10:23:38;34.40;59.30
38380;DHT22;38377;47.418;18.882;2022-08-19T10:26:05;34.50;58.70
38380;DHT22;38377;47.418;18.882;2022-08-19T10:28:34;34.90;59.00
38380;DHT22;38377;47.418;18.882;2022-08-19T10:31:04;35.10;57.00
38380;DHT22;38377;47.418;18.882;2022-08-19T10:33:32;34.80;57.20
38380;DHT22;38377;47.418;18.882;2022-08-19T10:36:02;34.80;56.60
38380;DHT22;38377;47.418;18.882;2022-08-19T10:38:28;34.60;57.20
38380;DHT22;38377;47.418;18.882;2022-08-19T10:40:54;35.10;57.30
38380;DHT22;38377;47.418;18.882;2022-08-19T10:43:20;35.40;56.10
38380;DHT22;38377;47.418;18.882;2022-08-19T10:45:53;35.20;56.00
38380;DHT22;38377;47.418;18.882;2022-08-19T10:48:23;35.50;56.10
38380;DHT22;38377;47.418;18.882;2022-08-19T10:50:49;35.50;56.10
38380;DHT22;38377;47.418;18.882;2022-08-19T10:53:33;35.50;55.50
38380;DHT22;38377;47.418;18.882;2022-08-19T10:55:59;35.30;55.10
38380;DHT22;38377;47.418;18.882;2022-08-19T10:58:43;35.20;55.00
38380;DHT22;38377;47.418;18.882;2022-08-19T11:01:10;35.40;55.00
38380;DHT22;38377;47.418;18.882;2022-08-19T11:03:35;35.50;54.30
38380;DHT22;38377;47.418;18.882;2022-08-19T11:06:04;35.50;54.70
38380;DHT22;38377;47.418;18.882;2022-08-19T11:08:30;35.50;54.20
38380;DHT22;38377;47.418;18.882;2022-08-19T11:10:59;35.70;53.80
38380;DHT22;38377;47.418;18.882;2022-08-19T11:13:29;35.70;54.50
38380;DHT22;38377;47.418;18.882;2022-08-19T11:15:57;35.80;53.50
38380;DHT22;38377;47.418;18.882;2022-08-19T11:18:23;36.00;53.60
38380;DHT22;38377;47.418;18.882;2022-08-19T11:20:49;36.00;53.50
38380;DHT22;38377;47.418;18.882;2022-08-19T11:23:14;35.70;53.60
38380;DHT22;38377;47.418;18.882;2022-08-19T11:25:40;35.40;53.90
38380;DHT22;38377;47.418;18.882;2022-08-19T11:28:06;35.60;54.10
38380;DHT22;38377;47.418;18.882;2022-08-19T11:30:32;35.70;54.30
38380;DHT22;38377;47.418;18.882;2022-08-19T11:32:58;35.90;54.20
38380;DHT22;38377;47.418;18.882;2022-08-19T11:35:26;36.20;54.20
38380;DHT22;38377;47.418;18.882;2022-08-19T11:37:52;36.20;53.20
38380;DHT22;38377;47.418;18.882;2022-08-19T11:40:17;36.40;53.00
38380;DHT22;38377;47.418;18.882;2022-08-19T11:42:43;36.50;54.10
38380;DHT22;38377;47.418;18.882;2022-08-19T11:45:25;36.40;53.30
38380;DHT22;38377;47.418;18.882;2022-08-19T11:47:51;35.80;53.60
38380;DHT22;38377;47.418;18.882;2022-08-19T11:50:18;35.70;54.10
38380;DHT22;38377;47.418;18.882;2022-08-19T11:52:44;35.60;54.10
38380;DHT22;38377;47.418;18.882;2022-08-19T11:55:12;35.50;53.70
38380;DHT22;38377;47.418;18.882;2022-08-19T11:57:38;35.30;53.90
38380;DHT22;38377;47.418;18.882;2022-08-19T12:00:05;35.10;54.20
38380;DHT22;38377;47.418;18.882;2022-08-19T12:02:32;35.10;54.00
38380;DHT22;38377;47.418;18.882;2022-08-19T12:04:58;35.10;54.70
38380;DHT22;38377;47.418;18.882;2022-08-19T12:07:24;35.20;54.00
38380;DHT22;38377;47.418;18.882;2022-08-19T12:09:50;35.20;53.40
38380;DHT22;38377;47.418;18.882;2022-08-19T12:12:16;35.30;53.50
38380;DHT22;38377;47.418;18.882;2022-08-19T12:14:42;35.50;53.40
38380;DHT22;38377;47.418;18.882;2022-08-19T12:17:07;35.50;53.20
38380;DHT22;38377;47.418;18.882;2022-08-19T12:19:36;35.80;53.60
38380;DHT22;38377;47.418;18.882;2022-08-19T12:22:02;35.90;53.00
38380;DHT22;38377;47.418;18.882;2022-08-19T12:24:31;35.70;52.50
38380;DHT22;38377;47.418;18.882;2022-08-19T12:26:57;35.40;52.60
38380;DHT22;38377;47.418;18.882;2022-08-19T12:29:24;35.40;53.00
38380;DHT22;38377;47.418;18.882;2022-08-19T12:31:54;35.50;53.10
38380;DHT22;38377;47.418;18.882;2022-08-19T12:34:19;35.20;53.20
38380;DHT22;38377;47.418;18.882;2022-08-19T12:36:45;35.40;53.60
38380;DHT22;38377;47.418;18.882;2022-08-19T12:39:11;35.60;52.80
38380;DHT22;38377;47.418;18.882;2022-08-19T12:41:37;35.50;53.10
38380;DHT22;38377;47.418;18.882;2022-08-19T12:44:03;35.70;53.00
38380;DHT22;38377;47.418;18.882;2022-08-19T12:46:28;35.90;53.30
38380;DHT22;38377;47.418;18.882;2022-08-19T12:48:54;36.10;52.70
38380;DHT22;38377;47.418;18.882;2022-08-19T12:51:21;36.00;52.30
38380;DHT22;38377;47.418;18.882;2022-08-19T12:53:47;35.90;52.50
38380;DHT22;38377;47.418;18.882;2022-08-19T12:56:14;36.10;52.20
38380;DHT22;38377;47.418;18.882;2022-08-19T12:58:41;36.50;52.60
38380;DHT22;38377;47.418;18.882;2022-08-19T13:01:12;36.40;52.00
38380;DHT22;38377;47.418;18.882;2022-08-19T13:03:38;35.90;52.50
38380;DHT22;38377;47.418;18.882;2022-08-19T13:06:04;35.80;53.00
38380;DHT22;38377;47.418;18.882;2022-08-19T13:08:30;35.40;52.90
38380;DHT22;38377;47.418;18.882;2022-08-19T13:10:56;35.10;52.80
38380;DHT22;38377;47.418;18.882;2022-08-19T13:13:24;34.90;53.50
38380;DHT22;38377;47.418;18.882;2022-08-19T13:15:51;34.90;53.30
38380;DHT22;38377;47.418;18.882;2022-08-19T13:18:17;34.70;53.30
38380;DHT22;38377;47.418;18.882;2022-08-19T13:20:43;34.80;53.90
38380;DHT22;38377;47.418;18.882;2022-08-19T13:23:09;34.90;54.20
38380;DHT22;38377;47.418;18.882;2022-08-19T13:25:35;34.70;55.00
38380;DHT22;38377;47.418;18.882;2022-08-19T13:28:01;34.90;56.20
38380;DHT22;38377;47.418;18.882;2022-08-19T13:30:27;35.00;56.00
38380;DHT22;38377;47.418;18.882;2022-08-19T13:33:11;35.10;55.80
38380;DHT22;38377;47.418;18.882;2022-08-19T13:35:53;35.00;56.90
38380;DHT22;38377;47.418;18.882;2022-08-19T13:38:23;34.50;57.80
38380;DHT22;38377;47.418;18.882;2022-08-19T13:40:51;34.30;58.50
38380;DHT22;38377;47.418;18.882;2022-08-19T13:43:18;34.00;59.40
38380;DHT22;38377;47.418;18.882;2022-08-19T13:45:46;34.00;59.20
38380;DHT22;38377;47.418;18.882;2022-08-19T13:48:11;33.80;60.00
38380;DHT22;38377;47.418;18.882;2022-08-19T13:50:42;33.80;60.30
38380;DHT22;38377;47.418;18.882;2022-08-19T13:53:10;33.50;60.90
38380;DHT22;38377;47.418;18.882;2022-08-19T13:55:40;33.30;61.40
38380;DHT22;38377;47.418;18.882;2022-08-19T13:58:06;33.00;61.70
38380;DHT22;38377;47.418;18.882;2022-08-19T14:00:35;32.50;62.70
38380;DHT22;38377;47.418;18.882;2022-08-19T14:03:02;32.30;62.70
38380;DHT22;38377;47.418;18.882;2022-08-19T14:05:29;32.10;62.80
38380;DHT22;38377;47.418;18.882;2022-08-19T14:07:55;32.10;62.80
38380;DHT22;38377;47.418;18.882;2022-08-19T14:10:22;31.90;63.00
38380;DHT22;38377;47.418;18.882;2022-08-19T14:12:49;31.80;63.40
38380;DHT22;38377;47.418;18.882;2022-08-19T14:15:17;31.80;63.00
38380;DHT22;38377;47.418;18.882;2022-08-19T14:17:44;31.60;63.60
38380;DHT22;38377;47.418;18.882;2022-08-19T14:20:12;31.50;62.80
38380;DHT22;38377;47.418;18.882;2022-08-19T14:22:40;31.50;63.20
38380;DHT22;38377;47.418;18.882;2022-08-19T14:25:08;31.40;59.90
38380;DHT22;38377;47.418;18.882;2022-08-19T14:27:35;31.40;58.80
38380;DHT22;38377;47.418;18.882;2022-08-19T14:30:09;31.30;57.80
38380;DHT22;38377;47.418;18.882;2022-08-19T14:32:35;31.40;57.70
38380;DHT22;38377;47.418;18.882;2022-08-19T14:35:02;31.40;57.50
38380;DHT22;38377;47.418;18.882;2022-08-19T14:37:28;31.20;57.20
38380;DHT22;38377;47.418;18.882;2022-08-19T14:39:54;30.90;57.10
38380;DHT22;38377;47.418;18.882;2022-08-19T14:42:19;30.80;57.60
38380;DHT22;38377;47.418;18.882;2022-08-19T14:44:45;30.80;57.40
38380;DHT22;38377;47.418;18.882;2022-08-19T14:47:11;30.70;57.50
38380;DHT22;38377;47.418;18.882;2022-08-19T14:49:37;30.50;58.00
38380;DHT22;38377;47.418;18.882;2022-08-19T14:52:04;30.50;58.30
38380;DHT22;38377;47.418;18.882;2022-08-19T14:54:30;30.50;58.50
38380;DHT22;38377;47.418;18.882;2022-08-19T14:56:56;30.40;58.00
38380;DHT22;38377;47.418;18.882;2022-08-19T14:59:22;30.40;58.20
38380;DHT22;38377;47.418;18.882;2022-08-19T15:01:48;30.40;58.10
38380;DHT22;38377;47.418;18.882;2022-08-19T15:04:14;30.30;57.70
38380;DHT22;38377;47.418;18.882;2022-08-19T15:06:40;30.30;58.10
38380;DHT22;38377;47.418;18.882;2022-08-19T15:09:08;30.30;57.80
38380;DHT22;38377;47.418;18.882;2022-08-19T15:11:34;30.30;57.70
38380;DHT22;38377;47.418;18.882;2022-08-19T15:14:00;30.10;57.80
38380;DHT22;38377;47.418;18.882;2022-08-19T15:16:27;30.10;57.80
38380;DHT22;38377;47.418;18.882;2022-08-19T15:18:55;30.00;58.00
38380;DHT22;38377;47.418;18.882;2022-08-19T15:21:23;30.00;57.90
38380;DHT22;38377;47.418;18.882;2022-08-19T15:23:50;29.90;58.00
38380;DHT22;38377;47.418;18.882;2022-08-19T15:26:17;29.90;58.00
38380;DHT22;38377;47.418;18.882;2022-08-19T15:28:44;29.80;58.00
38380;DHT22;38377;47.418;18.882;2022-08-19T15:31:11;29.80;58.40
38380;DHT22;38377;47.418;18.882;2022-08-19T15:33:38;29.70;59.10